Terminal Aerodrome Forecast
Issued by NWS Charleston, WV

Current Version | Previous Version | Graphics & Text | Print | Product List | Glossary On
Versions: 1 2 3 4 5 6 7 8 9 10 11 12 13 14 15 16 17 18 19 20 21 22 23 24
000
FTUS41 KRLX 042000 AAA
TAFBKW
TAF AMD
KBKW 042028Z 0420/0518 VRB03KT 2SM -RA BR SCT007 OVC025
      TEMPO 0420/0423 1/2SM -RA FG OVC007
     FM042300 33004KT 2SM -RA BR OVC004
     FM050600 34010KT 2SM -FZRAPL BR OVC005
     FM050900 35007KT 1/2SM SN FG OVC004
     FM051400 34006KT 1SM -SN BR OVC005=

USA.gov is the U.S. government's official web portal to all federal, state and local government web resources and services.